Avondale, Washington
Current Conditions -  °F | °C
As of 9:53 PM on Sunday 21 Dec 2014 (Local Time) from KBFI Reporting Station
Broken Clouds Broken Clouds  
Wind Chill: 54°   Ceiling: 10000
Heat Index: 54°   Visibility: 10mi
Dew Point: 45°   Wind: 5mph
Humidity: 72%   Direction: 190°S
Pressure: 30.07"   Gusts: NA
Location:  47.6833°N, 122.123°W
Report Text: KBFI 220553Z 19004KT 10SM SCT020 BKN100 12/07 A3007 RMK AO2 SLP181 T01220072 10133 20111 58002
Loading
Personal Weather Stations






























Interactive Weather Map New forecast layout! Learn more

10-Day Weather Forecast

Advertisements
Track Severe Weather on mobile